Trenton, North Carolina
Current Conditions -  °F | °C
As of 11:28 AM on Monday 24 Nov 2014 (Local Time) from KEWN Reporting Station
Overcast Overcast  
Wind Chill: 71°   Ceiling: 1100
Heat Index: 71°   Visibility: 10mi
Dew Point: 67°   Wind: 6mph
Humidity: 87%   Direction: 220°SW
Pressure: 29.89"   Gusts: NA
Location:  35.07°N, 77.35°W
Report Text: KEWN 241628Z 22005KT 10SM BKN011 OVC019 22/19 A2989 RMK AO2 CIG 008V015 T02170194
Loading
Personal Weather Stations






























Interactive Weather Map New forecast layout! Learn more

10-Day Weather Forecast

Advertisements
Track Severe Weather on mobile